Time;durP1;ratioP1;P1;durP2;ratioP2;P2;SDS_P1;SDS_P2;PMS_P1;PMS_P2;Temp;Humidity;BMP_temperature;BMP_pressure;BME280_temperature;BME280_humidity;BME280_pressure;Samples;Min_cycle;Max_cycle;Signal;HPM_P1;HPM_P2
2021/03/16 00:00:55;;;;;;;9.87;6.07;;;;;;;;;;6226864;23;20160;-88
2021/03/16 00:04:18;;;;;;;10.43;6.20;;;;;;;;;;6225552;23;20558;-88
2021/03/16 00:07:37;;;;;;;9.57;6.20;;;;;;;;;;6224727;23;20219;-89
2021/03/16 00:10:42;;;;;;;10.13;6.60;;;;;;;;;;6223566;23;20171;-89
2021/03/16 00:13:46;;;;;;;10.97;5.93;;;;;;;;;;6206049;23;20236;-90
2021/03/16 00:16:51;;;;;;;13.07;6.47;;;;;;;;;;6224767;23;20167;-87
2021/03/16 00:19:56;;;;;;;11.83;6.30;;;;;;;;;;6206137;23;20250;-89
2021/03/16 00:23:01;;;;;;;11.60;5.90;;;;;;;;;;6225731;23;20190;-89
2021/03/16 00:26:06;;;;;;;14.33;6.20;;;;;;;;;;6224114;23;20214;-88
2021/03/16 00:29:10;;;;;;;11.00;5.80;;;;;;;;;;6224485;23;20174;-89
2021/03/16 00:32:15;;;;;;;10.83;5.87;;;;;;;;;;6223628;23;20167;-90
2021/03/16 00:35:19;;;;;;;12.33;5.90;;;;;;;;;;6223719;23;20214;-89
2021/03/16 00:38:25;;;;;;;10.17;5.80;;;;;;;;;;6224263;23;20171;-88
2021/03/16 00:41:29;;;;;;;12.30;5.70;;;;;;;;;;6223199;23;20547;-90
2021/03/16 00:44:34;;;;;;;12.90;6.10;;;;;;;;;;6206251;23;20248;-88
2021/03/16 00:47:38;;;;;;;12.63;6.07;;;;;;;;;;6224781;23;20183;-90
2021/03/16 00:50:43;;;;;;;10.93;5.73;;;;;;;;;;6224005;23;20190;-91
2021/03/16 00:53:48;;;;;;;10.87;5.67;;;;;;;;;;6224326;23;20191;-88
2021/03/16 00:56:55;;;;;;;11.57;6.13;;;;;;;;;;6224281;23;20167;-90
2021/03/16 00:59:59;;;;;;;13.93;6.70;;;;;;;;;;6223706;23;20638;-90
2021/03/16 01:03:03;;;;;;;13.30;6.63;;;;;;;;;;6222445;23;20215;-88
2021/03/16 01:06:07;;;;;;;13.07;6.07;;;;;;;;;;6223995;23;20190;-89
2021/03/16 01:09:13;;;;;;;14.53;6.77;;;;;;;;;;6222302;23;20167;-88
2021/03/16 01:12:18;;;;;;;12.60;6.20;;;;;;;;;;6232741;23;20222;-89
2021/03/16 01:15:22;;;;;;;13.40;6.23;;;;;;;;;;6224484;23;20239;-90
2021/03/16 01:18:26;;;;;;;12.70;6.67;;;;;;;;;;6223794;23;20302;-90
2021/03/16 01:21:31;;;;;;;15.47;7.43;;;;;;;;;;6223563;23;20167;-88
2021/03/16 01:24:42;;;;;;;12.70;6.70;;;;;;;;;;6223018;23;20626;-89
2021/03/16 01:27:47;;;;;;;15.07;7.50;;;;;;;;;;6223590;23;20619;-91
2021/03/16 01:30:52;;;;;;;14.00;6.80;;;;;;;;;;6241654;23;20260;-89
2021/03/16 01:33:56;;;;;;;16.03;7.70;;;;;;;;;;6224689;23;20179;-88
2021/03/16 01:37:01;;;;;;;14.37;7.23;;;;;;;;;;6223416;23;20686;-88
2021/03/16 01:40:10;;;;;;;15.13;7.67;;;;;;;;;;6224094;23;20175;-88
2021/03/16 01:43:15;;;;;;;14.97;7.30;;;;;;;;;;6240208;23;20167;-88
2021/03/16 01:46:20;;;;;;;13.67;6.77;;;;;;;;;;6222192;23;20234;-89
2021/03/16 01:49:25;;;;;;;14.40;7.50;;;;;;;;;;6222151;23;20178;-90
2021/03/16 01:52:30;;;;;;;14.80;7.57;;;;;;;;;;6222947;23;20166;-89
2021/03/16 01:55:36;;;;;;;14.83;7.67;;;;;;;;;;6221770;23;20241;-90
2021/03/16 01:58:44;;;;;;;16.00;7.77;;;;;;;;;;6223012;23;20170;-92
2021/03/16 02:02:07;;;;;;;15.30;7.93;;;;;;;;;;6223157;23;20168;-89
2021/03/16 02:05:30;;;;;;;15.77;8.37;;;;;;;;;;6224088;23;20292;-89
2021/03/16 02:08:58;;;;;;;14.90;7.40;;;;;;;;;;6223871;23;20674;-89
2021/03/16 02:12:27;;;;;;;18.07;8.80;;;;;;;;;;6223404;23;20238;-89
2021/03/16 02:15:54;;;;;;;19.67;8.43;;;;;;;;;;6223649;23;20167;-91
2021/03/16 02:19:24;;;;;;;18.33;8.60;;;;;;;;;;6223864;23;20215;-89
2021/03/16 02:22:48;;;;;;;16.20;8.30;;;;;;;;;;6225067;23;20191;-91
2021/03/16 02:26:17;;;;;;;15.37;7.73;;;;;;;;;;6223702;23;20203;-91
2021/03/16 02:29:44;;;;;;;17.47;7.63;;;;;;;;;;6223602;23;20203;-88
2021/03/16 02:33:09;;;;;;;15.90;7.67;;;;;;;;;;6222561;23;20222;-89
2021/03/16 02:36:33;;;;;;;18.37;8.43;;;;;;;;;;6221972;23;20175;-87
2021/03/16 02:39:57;;;;;;;15.17;7.67;;;;;;;;;;6224115;23;20168;-89
2021/03/16 02:43:21;;;;;;;18.23;7.60;;;;;;;;;;6222581;23;20168;-89
2021/03/16 02:46:46;;;;;;;14.90;7.20;;;;;;;;;;6223248;23;20191;-89
2021/03/16 02:50:10;;;;;;;19.67;8.53;;;;;;;;;;6224283;23;20151;-91
2021/03/16 02:53:35;;;;;;;18.50;7.47;;;;;;;;;;6221852;23;20175;-88
2021/03/16 02:57:00;;;;;;;18.13;7.17;;;;;;;;;;6223313;23;20167;-90
2021/03/16 03:00:24;;;;;;;16.87;7.17;;;;;;;;;;6224140;23;20218;-90
2021/03/16 03:03:49;;;;;;;12.97;5.93;;;;;;;;;;6223377;23;20217;-89
2021/03/16 03:07:13;;;;;;;16.40;6.37;;;;;;;;;;6221907;23;20195;-90
2021/03/16 03:10:37;;;;;;;18.60;6.40;;;;;;;;;;6224160;23;20191;-90
2021/03/16 03:14:03;;;;;;;21.13;6.60;;;;;;;;;;6223959;23;20171;-89
2021/03/16 03:17:27;;;;;;;20.20;5.97;;;;;;;;;;6223315;23;20187;-87
2021/03/16 03:20:51;;;;;;;16.63;6.83;;;;;;;;;;6224941;23;20619;-89
2021/03/16 03:24:18;;;;;;;14.67;5.70;;;;;;;;;;6223473;23;20215;-89
2021/03/16 03:27:45;;;;;;;15.33;5.73;;;;;;;;;;6224671;23;20223;-88
2021/03/16 03:31:09;;;;;;;14.93;6.27;;;;;;;;;;6224306;23;20207;-88
2021/03/16 03:34:34;;;;;;;16.67;6.43;;;;;;;;;;6222105;23;20171;-89
2021/03/16 03:38:00;;;;;;;12.53;5.50;;;;;;;;;;6223980;23;20643;-91
2021/03/16 03:41:26;;;;;;;13.40;5.57;;;;;;;;;;6223215;23;20238;-89
2021/03/16 03:44:51;;;;;;;14.90;6.50;;;;;;;;;;6223465;23;20168;-89
2021/03/16 03:48:15;;;;;;;15.37;5.67;;;;;;;;;;6223293;23;20167;-90
2021/03/16 03:51:39;;;;;;;13.97;4.90;;;;;;;;;;6223090;23;20199;-89
2021/03/16 03:55:06;;;;;;;15.03;5.53;;;;;;;;;;6222181;23;20212;-88
2021/03/16 03:58:29;;;;;;;11.67;4.80;;;;;;;;;;6222773;23;20550;-88
2021/03/16 04:01:53;;;;;;;13.10;4.80;;;;;;;;;;6221867;23;20190;-89
2021/03/16 04:05:17;;;;;;;13.13;4.97;;;;;;;;;;6224152;23;20154;-89
2021/03/16 04:08:41;;;;;;;9.10;4.43;;;;;;;;;;6224371;23;20191;-89
2021/03/16 04:12:06;;;;;;;12.80;4.73;;;;;;;;;;6223179;23;20199;-90
2021/03/16 04:15:34;;;;;;;15.97;4.87;;;;;;;;;;6222942;23;20554;-88
2021/03/16 04:18:57;;;;;;;10.83;4.00;;;;;;;;;;6222454;23;20171;-90
2021/03/16 04:22:21;;;;;;;11.23;4.30;;;;;;;;;;6222429;23;20167;-89
2021/03/16 04:25:44;;;;;;;12.50;4.43;;;;;;;;;;6222550;23;20195;-89
2021/03/16 04:29:09;;;;;;;9.33;3.90;;;;;;;;;;6223984;23;20549;-89
2021/03/16 04:32:32;;;;;;;12.23;5.03;;;;;;;;;;6223882;23;20175;-90
2021/03/16 04:35:55;;;;;;;14.27;4.80;;;;;;;;;;6222795;23;20223;-88
2021/03/16 04:39:18;;;;;;;12.70;4.87;;;;;;;;;;6223770;23;20232;-87
2021/03/16 04:42:41;;;;;;;12.57;5.07;;;;;;;;;;6224628;23;20191;-88
2021/03/16 04:46:06;;;;;;;14.70;4.70;;;;;;;;;;6222914;23;20239;-87
2021/03/16 04:49:29;;;;;;;14.10;5.70;;;;;;;;;;6224814;23;20287;-90
2021/03/16 04:52:53;;;;;;;16.03;4.80;;;;;;;;;;6224199;23;20183;-89
2021/03/16 04:56:16;;;;;;;18.03;5.13;;;;;;;;;;6223769;23;20199;-88
2021/03/16 04:59:39;;;;;;;18.43;5.10;;;;;;;;;;6224601;23;20168;-89
2021/03/16 05:03:41;;;;;;;14.40;4.40;;;;;;;;;;6223617;23;20171;-87
2021/03/16 05:07:05;;;;;;;17.20;4.80;;;;;;;;;;6222199;23;20191;-88
2021/03/16 05:10:29;;;;;;;20.03;5.03;;;;;;;;;;6224855;23;20176;-90
2021/03/16 05:13:52;;;;;;;17.50;4.67;;;;;;;;;;6223471;23;20171;-90
2021/03/16 05:17:15;;;;;;;14.43;4.30;;;;;;;;;;6223179;23;20682;-90
2021/03/16 05:20:39;;;;;;;13.37;4.93;;;;;;;;;;6224052;23;20202;-89
2021/03/16 05:24:03;;;;;;;12.60;3.87;;;;;;;;;;6224474;23;20168;-89
2021/03/16 05:27:26;;;;;;;13.30;3.83;;;;;;;;;;6223269;23;20239;-90
2021/03/16 05:30:50;;;;;;;10.07;3.40;;;;;;;;;;6222291;23;20171;-88
2021/03/16 05:34:13;;;;;;;12.87;3.77;;;;;;;;;;6224271;23;20264;-90
2021/03/16 05:37:47;;;;;;;10.40;3.30;;;;;;;;;;6223161;23;20610;-91
2021/03/16 05:41:11;;;;;;;10.33;3.90;;;;;;;;;;6224755;23;20198;-88
2021/03/16 05:44:37;;;;;;;10.63;3.07;;;;;;;;;;6224220;23;20210;-88
2021/03/16 05:48:01;;;;;;;9.47;2.87;;;;;;;;;;6224520;23;20163;-89
2021/03/16 05:51:27;;;;;;;12.60;2.80;;;;;;;;;;6222815;23;20218;-89
2021/03/16 05:54:53;;;;;;;11.10;2.73;;;;;;;;;;6223383;23;20175;-87
2021/03/16 05:58:17;;;;;;;10.07;3.13;;;;;;;;;;6223187;23;20280;-87
2021/03/16 06:01:41;;;;;;;11.03;2.73;;;;;;;;;;6222429;23;20167;-88
2021/03/16 06:05:05;;;;;;;7.10;2.87;;;;;;;;;;6223126;23;20211;-89
2021/03/16 06:08:31;;;;;;;9.40;2.90;;;;;;;;;;6226106;23;20183;-87
2021/03/16 06:11:54;;;;;;;9.33;2.63;;;;;;;;;;6222813;23;20198;-88
2021/03/16 06:15:19;;;;;;;13.07;2.83;;;;;;;;;;6224302;23;20167;-90
2021/03/16 06:18:43;;;;;;;7.70;2.30;;;;;;;;;;6222725;23;20262;-87
2021/03/16 06:22:07;;;;;;;7.83;2.40;;;;;;;;;;6223021;23;20164;-87
2021/03/16 06:25:31;;;;;;;7.60;2.73;;;;;;;;;;6223513;23;20176;-88
2021/03/16 06:29:04;;;;;;;7.07;2.23;;;;;;;;;;6223925;23;20178;-87
2021/03/16 06:32:36;;;;;;;12.37;3.00;;;;;;;;;;6236302;23;20270;-88
2021/03/16 06:36:01;;;;;;;6.23;2.40;;;;;;;;;;6222798;23;20190;-88
2021/03/16 06:39:27;;;;;;;7.77;2.60;;;;;;;;;;6223605;23;20222;-87
2021/03/16 06:43:01;;;;;;;7.93;2.40;;;;;;;;;;6223581;23;20562;-90
2021/03/16 06:46:38;;;;;;;8.20;2.90;;;;;;;;;;6238502;22;20210;-86
2021/03/16 06:50:05;;;;;;;6.50;2.27;;;;;;;;;;6221607;22;20175;-88
2021/03/16 06:53:29;;;;;;;9.13;3.37;;;;;;;;;;6223338;23;20259;-88
2021/03/16 06:56:52;;;;;;;6.43;2.57;;;;;;;;;;6223740;23;20167;-91
2021/03/16 07:00:17;;;;;;;15.00;3.30;;;;;;;;;;6233742;23;20196;-87
2021/03/16 07:03:40;;;;;;;11.27;2.53;;;;;;;;;;6222468;23;20190;-86
2021/03/16 07:07:07;;;;;;;9.17;2.60;;;;;;;;;;6223784;23;20242;-89
2021/03/16 07:10:30;;;;;;;6.53;2.67;;;;;;;;;;6223415;23;20188;-88
2021/03/16 07:13:54;;;;;;;8.87;2.53;;;;;;;;;;6225677;23;20164;-88
2021/03/16 07:17:19;;;;;;;8.17;2.43;;;;;;;;;;6224474;23;20172;-88
2021/03/16 07:20:42;;;;;;;6.33;2.60;;;;;;;;;;6222316;23;20167;-87
2021/03/16 07:24:11;;;;;;;7.97;2.87;;;;;;;;;;6223313;23;20175;-87
2021/03/16 07:27:35;;;;;;;10.30;2.53;;;;;;;;;;6221969;23;20195;-88
2021/03/16 07:30:59;;;;;;;9.33;2.83;;;;;;;;;;6222327;23;20206;-89
2021/03/16 07:34:23;;;;;;;9.43;2.37;;;;;;;;;;6229925;23;20171;-89
2021/03/16 07:37:48;;;;;;;16.50;2.40;;;;;;;;;;6210916;23;20175;-90
2021/03/16 07:41:13;;;;;;;8.27;2.23;;;;;;;;;;6223066;23;20162;-89
2021/03/16 07:44:42;;;;;;;5.20;1.87;;;;;;;;;;6222884;23;20210;-90
2021/03/16 07:48:15;;;;;;;9.87;2.43;;;;;;;;;;6224117;23;20171;-89
2021/03/16 07:51:41;;;;;;;9.67;2.90;;;;;;;;;;6223410;23;20167;-88
2021/03/16 07:55:05;;;;;;;8.77;2.70;;;;;;;;;;6226742;23;20222;-89
2021/03/16 07:58:29;;;;;;;9.77;2.67;;;;;;;;;;6224810;23;20167;-88
2021/03/16 08:01:52;;;;;;;12.13;2.77;;;;;;;;;;6224135;22;20172;-89
2021/03/16 08:05:15;;;;;;;12.80;3.23;;;;;;;;;;6225847;23;20175;-88
2021/03/16 08:08:39;;;;;;;18.57;3.20;;;;;;;;;;6222545;23;20163;-87
2021/03/16 08:12:04;;;;;;;24.80;3.20;;;;;;;;;;6223427;23;20191;-90
2021/03/16 08:15:28;;;;;;;6.43;2.00;;;;;;;;;;6225423;23;20631;-90
2021/03/16 08:18:52;;;;;;;20.23;2.60;;;;;;;;;;6226944;23;20176;-88
2021/03/16 08:22:20;;;;;;;14.17;2.63;;;;;;;;;;6228107;23;20280;-88
2021/03/16 08:25:48;;;;;;;13.50;2.50;;;;;;;;;;6226885;23;20171;-88
2021/03/16 08:29:11;;;;;;;13.20;2.60;;;;;;;;;;6226993;23;20187;-88
2021/03/16 08:32:37;;;;;;;6.87;2.33;;;;;;;;;;6225087;23;20234;-88
2021/03/16 08:36:00;;;;;;;8.97;1.97;;;;;;;;;;6222980;23;20171;-88
2021/03/16 08:39:25;;;;;;;12.43;2.63;;;;;;;;;;6224271;23;20518;-85
2021/03/16 08:42:48;;;;;;;10.77;2.40;;;;;;;;;;6223928;23;20172;-91
2021/03/16 08:46:12;;;;;;;9.87;2.23;;;;;;;;;;6224482;23;20192;-88
2021/03/16 08:49:40;;;;;;;8.00;2.67;;;;;;;;;;6224314;23;20214;-88
2021/03/16 08:53:04;;;;;;;6.77;1.97;;;;;;;;;;6225007;23;20182;-89
2021/03/16 08:56:27;;;;;;;10.37;2.10;;;;;;;;;;6225147;23;20163;-88
2021/03/16 08:59:52;;;;;;;10.33;2.40;;;;;;;;;;6226049;23;20627;-88
2021/03/16 09:03:15;;;;;;;6.00;2.50;;;;;;;;;;6225911;23;20167;-87
2021/03/16 09:06:40;;;;;;;9.00;2.10;;;;;;;;;;6225264;23;20206;-90
2021/03/16 09:10:04;;;;;;;7.07;2.57;;;;;;;;;;6225362;23;20614;-89
2021/03/16 09:13:27;;;;;;;5.83;1.80;;;;;;;;;;6223730;23;20174;-87
2021/03/16 09:16:52;;;;;;;7.70;1.90;;;;;;;;;;6224596;23;20175;-88
2021/03/16 09:20:17;;;;;;;5.10;1.90;;;;;;;;;;6225660;23;20618;-89
2021/03/16 09:23:41;;;;;;;7.70;1.93;;;;;;;;;;6226238;23;20166;-88
2021/03/16 09:27:13;;;;;;;8.30;2.00;;;;;;;;;;6225005;23;20198;-86
2021/03/16 09:30:42;;;;;;;6.80;1.53;;;;;;;;;;6225238;23;20554;-89
2021/03/16 09:34:07;;;;;;;7.27;1.80;;;;;;;;;;6226535;23;20209;-88
2021/03/16 09:37:41;;;;;;;8.37;2.03;;;;;;;;;;6224707;23;20171;-88
2021/03/16 09:41:12;;;;;;;14.27;2.27;;;;;;;;;;6209138;23;20194;-87
2021/03/16 09:44:27;;;;;;;8.57;1.93;;;;;;;;;;6226055;23;20175;-89
2021/03/16 09:47:32;;;;;;;6.37;1.90;;;;;;;;;;6226333;22;20198;-87
2021/03/16 09:50:38;;;;;;;11.47;1.60;;;;;;;;;;6223195;23;20194;-89
2021/03/16 09:53:46;;;;;;;6.47;1.90;;;;;;;;;;6224524;23;20155;-89
2021/03/16 09:56:52;;;;;;;10.37;1.90;;;;;;;;;;6206061;23;20215;-89
2021/03/16 09:59:57;;;;;;;6.67;1.90;;;;;;;;;;6224784;23;20477;-89
2021/03/16 10:03:07;;;;;;;7.03;1.97;;;;;;;;;;6222992;23;20171;-88
2021/03/16 10:06:11;;;;;;;7.33;1.67;;;;;;;;;;6223116;23;20167;-89
2021/03/16 10:09:16;;;;;;;7.97;2.03;;;;;;;;;;6223033;23;20239;-89
2021/03/16 10:12:23;;;;;;;9.37;1.70;;;;;;;;;;6214126;23;20211;-90
2021/03/16 10:15:29;;;;;;;9.23;2.67;;;;;;;;;;6223535;23;20166;-87
2021/03/16 10:18:44;;;;;;;9.20;1.73;;;;;;;;;;6224107;23;20167;-86
2021/03/16 10:21:49;;;;;;;9.90;1.70;;;;;;;;;;6222591;22;20578;-86
2021/03/16 10:24:58;;;;;;;5.20;1.43;;;;;;;;;;6222344;23;20171;-91
2021/03/16 10:28:05;;;;;;;5.90;1.33;;;;;;;;;;6223247;23;20239;-88
2021/03/16 10:31:13;;;;;;;10.20;1.47;;;;;;;;;;6242473;23;20170;-86
2021/03/16 10:34:17;;;;;;;6.43;1.37;;;;;;;;;;6225445;23;20175;-86
2021/03/16 10:37:23;;;;;;;7.10;1.60;;;;;;;;;;6244637;22;20171;-88
2021/03/16 10:40:28;;;;;;;8.23;1.40;;;;;;;;;;6226691;23;20166;-88
2021/03/16 10:43:33;;;;;;;12.33;1.97;;;;;;;;;;6225030;23;20209;-87
2021/03/16 10:46:37;;;;;;;5.30;1.50;;;;;;;;;;6224409;23;20206;-87
2021/03/16 10:49:42;;;;;;;5.40;1.50;;;;;;;;;;6225874;23;20182;-87
2021/03/16 10:52:47;;;;;;;9.07;1.80;;;;;;;;;;6225722;23;20211;-89
2021/03/16 10:55:51;;;;;;;11.30;1.77;;;;;;;;;;6226116;23;20214;-87
2021/03/16 10:58:56;;;;;;;10.93;3.30;;;;;;;;;;6224949;23;20175;-87
2021/03/16 11:02:00;;;;;;;7.47;1.53;;;;;;;;;;6225555;23;20239;-87
2021/03/16 11:05:07;;;;;;;5.90;1.57;;;;;;;;;;6224964;23;20183;-88
2021/03/16 11:08:11;;;;;;;8.37;1.60;;;;;;;;;;6225471;23;20236;-87
2021/03/16 11:11:16;;;;;;;10.70;1.50;;;;;;;;;;6225961;22;20229;-90
2021/03/16 11:14:22;;;;;;;11.77;1.63;;;;;;;;;;6225364;23;20159;-90
2021/03/16 11:17:27;;;;;;;4.77;1.00;;;;;;;;;;6225387;23;20214;-87
2021/03/16 11:20:31;;;;;;;4.73;1.33;;;;;;;;;;6207137;23;20167;-87
2021/03/16 11:27:25;;;;;;;4.20;1.00;;;;;;;;;;6208304;23;20308;-89
2021/03/16 11:30:31;;;;;;;5.57;1.23;;;;;;;;;;6226470;23;20171;-87
2021/03/16 11:33:41;;;;;;;6.00;1.17;;;;;;;;;;6228207;23;20171;-86
2021/03/16 11:37:05;;;;;;;5.30;1.20;;;;;;;;;;6229399;22;20689;-87
2021/03/16 11:40:29;;;;;;;8.63;1.30;;;;;;;;;;6229099;23;20167;-87
2021/03/16 11:47:45;;;;;;;8.80;3.03;;;;;;;;;;6226181;23;20526;-90
2021/03/16 11:51:09;;;;;;;6.70;1.33;;;;;;;;;;6229375;23;20167;-89
2021/03/16 11:54:33;;;;;;;14.90;1.93;;;;;;;;;;6226982;23;20779;-87
2021/03/16 11:57:57;;;;;;;3.43;1.20;;;;;;;;;;6227058;23;20191;-88
2021/03/16 12:01:20;;;;;;;7.97;1.43;;;;;;;;;;6229218;23;20220;-87
2021/03/16 12:04:46;;;;;;;10.80;1.40;;;;;;;;;;6227937;23;20262;-88
2021/03/16 12:08:09;;;;;;;8.43;1.50;;;;;;;;;;6227787;23;20191;-86
2021/03/16 12:11:32;;;;;;;7.97;1.40;;;;;;;;;;6227067;23;20195;-88
2021/03/16 12:14:57;;;;;;;5.33;1.03;;;;;;;;;;6227334;23;20224;-88
2021/03/16 12:18:20;;;;;;;9.03;1.60;;;;;;;;;;6229427;23;20614;-87
2021/03/16 12:21:44;;;;;;;4.07;1.07;;;;;;;;;;6226348;23;20179;-85
2021/03/16 12:25:08;;;;;;;6.23;1.93;;;;;;;;;;6228152;23;20217;-87
2021/03/16 12:28:33;;;;;;;6.63;1.63;;;;;;;;;;6228689;23;20162;-87
2021/03/16 12:31:57;;;;;;;6.13;1.10;;;;;;;;;;6229568;23;20151;-88
2021/03/16 12:35:21;;;;;;;5.37;1.27;;;;;;;;;;6225170;22;20274;-88
2021/03/16 12:38:45;;;;;;;5.50;1.20;;;;;;;;;;6226278;23;20234;-86
2021/03/16 12:42:11;;;;;;;3.20;1.70;;;;;;;;;;6224867;23;20168;-87
2021/03/16 12:45:35;;;;;;;3.07;1.17;;;;;;;;;;6226986;23;20614;-88
2021/03/16 12:48:58;;;;;;;6.67;1.20;;;;;;;;;;6225747;23;20172;-87
2021/03/16 12:52:21;;;;;;;13.80;1.60;;;;;;;;;;6225103;23;20216;-89
2021/03/16 12:55:46;;;;;;;3.83;1.20;;;;;;;;;;6224267;22;20171;-89
2021/03/16 12:59:09;;;;;;;6.40;1.83;;;;;;;;;;6226157;22;20300;-87
2021/03/16 13:02:33;;;;;;;5.43;1.00;;;;;;;;;;6226756;23;20619;-88
2021/03/16 13:05:57;;;;;;;4.23;0.97;;;;;;;;;;6226867;23;20174;-89
2021/03/16 13:09:20;;;;;;;3.70;0.97;;;;;;;;;;6226135;23;20682;-87
2021/03/16 13:12:44;;;;;;;3.70;0.90;;;;;;;;;;6226381;23;20322;-89
2021/03/16 13:16:08;;;;;;;7.07;1.10;;;;;;;;;;6225118;23;20167;-86
2021/03/16 13:19:33;;;;;;;4.03;1.03;;;;;;;;;;6225189;23;20171;-87
2021/03/16 13:22:57;;;;;;;4.70;1.00;;;;;;;;;;6226073;23;20187;-88
2021/03/16 13:26:20;;;;;;;3.70;0.97;;;;;;;;;;6224366;23;20520;-90
2021/03/16 13:29:45;;;;;;;4.07;1.20;;;;;;;;;;6226781;23;20155;-88
2021/03/16 13:33:08;;;;;;;8.10;1.57;;;;;;;;;;6225403;23;20222;-89
2021/03/16 13:36:32;;;;;;;5.67;1.40;;;;;;;;;;6226403;23;20168;-89
2021/03/16 13:39:55;;;;;;;3.10;1.40;;;;;;;;;;6228549;23;20172;-87
2021/03/16 13:43:20;;;;;;;7.47;1.67;;;;;;;;;;6227203;23;20218;-88
2021/03/16 13:46:44;;;;;;;4.33;1.13;;;;;;;;;;6227013;23;20219;-89
2021/03/16 13:50:08;;;;;;;9.70;1.90;;;;;;;;;;6225362;23;20172;-89
2021/03/16 13:53:32;;;;;;;10.00;1.70;;;;;;;;;;6226478;22;20223;-88
2021/03/16 13:56:55;;;;;;;8.43;1.97;;;;;;;;;;6225413;23;20168;-87
2021/03/16 14:00:19;;;;;;;6.60;1.70;;;;;;;;;;6226138;23;20225;-88
2021/03/16 14:03:43;;;;;;;6.43;2.07;;;;;;;;;;6227299;23;20187;-88
2021/03/16 14:07:06;;;;;;;7.53;1.90;;;;;;;;;;6228027;23;20203;-87
2021/03/16 14:10:30;;;;;;;5.93;1.90;;;;;;;;;;6227281;23;20460;-87
2021/03/16 14:13:56;;;;;;;6.27;1.40;;;;;;;;;;6225516;23;20167;-89
2021/03/16 14:17:20;;;;;;;10.87;2.07;;;;;;;;;;6225794;23;20175;-88
2021/03/16 14:20:46;;;;;;;8.67;1.90;;;;;;;;;;6225922;23;20214;-89
2021/03/16 14:24:10;;;;;;;9.03;2.03;;;;;;;;;;6225219;23;20195;-90
2021/03/16 14:27:33;;;;;;;6.23;1.27;;;;;;;;;;6225318;23;20202;-88
2021/03/16 14:30:56;;;;;;;6.70;1.20;;;;;;;;;;6227851;23;20195;-89
2021/03/16 14:34:19;;;;;;;12.33;1.40;;;;;;;;;;6228001;23;20287;-89
2021/03/16 14:37:44;;;;;;;30.20;8.33;;;;;;;;;;6226377;22;20223;-88
2021/03/16 14:41:08;;;;;;;9.97;1.50;;;;;;;;;;6225220;22;20176;-88
2021/03/16 14:44:32;;;;;;;5.83;1.60;;;;;;;;;;6225567;23;20170;-86
2021/03/16 14:47:55;;;;;;;4.40;1.10;;;;;;;;;;6225161;23;20243;-87
2021/03/16 14:51:19;;;;;;;9.13;1.80;;;;;;;;;;6224274;23;20155;-88
2021/03/16 14:54:44;;;;;;;8.30;1.70;;;;;;;;;;6226548;23;20239;-88
2021/03/16 14:58:07;;;;;;;6.90;1.80;;;;;;;;;;6228251;23;20170;-88
2021/03/16 15:01:31;;;;;;;4.20;1.70;;;;;;;;;;6225883;23;20172;-88
2021/03/16 15:04:54;;;;;;;4.37;0.90;;;;;;;;;;6225677;23;20187;-91
2021/03/16 15:08:18;;;;;;;4.00;1.00;;;;;;;;;;6223718;23;20286;-90
2021/03/16 15:11:42;;;;;;;3.87;1.17;;;;;;;;;;6225621;23;20187;-88
2021/03/16 15:15:06;;;;;;;7.30;1.00;;;;;;;;;;6226180;23;20172;-86
2021/03/16 15:18:31;;;;;;;7.00;1.00;;;;;;;;;;6224857;23;20222;-91
2021/03/16 15:21:57;;;;;;;5.90;1.40;;;;;;;;;;6223582;23;20187;-88
2021/03/16 15:25:21;;;;;;;5.10;1.10;;;;;;;;;;6222785;23;20195;-89
2021/03/16 15:28:45;;;;;;;4.33;0.90;;;;;;;;;;6225299;23;20254;-90
2021/03/16 15:32:10;;;;;;;4.23;1.10;;;;;;;;;;6224564;23;20171;-88
2021/03/16 15:35:33;;;;;;;4.70;1.50;;;;;;;;;;6225219;23;20171;-89
2021/03/16 15:38:57;;;;;;;3.73;1.23;;;;;;;;;;6225241;23;20171;-89
2021/03/16 15:42:20;;;;;;;3.20;1.03;;;;;;;;;;6223039;23;20203;-89
2021/03/16 15:45:45;;;;;;;2.20;0.93;;;;;;;;;;6223001;23;20243;-88
2021/03/16 15:49:09;;;;;;;4.23;0.90;;;;;;;;;;6225002;23;20510;-88
2021/03/16 15:52:32;;;;;;;3.17;0.93;;;;;;;;;;6224484;23;20567;-89
2021/03/16 15:55:56;;;;;;;3.20;1.10;;;;;;;;;;6224382;23;20182;-91
2021/03/16 15:59:20;;;;;;;3.73;0.80;;;;;;;;;;6225140;23;20162;-88
2021/03/16 16:02:44;;;;;;;3.60;1.10;;;;;;;;;;6227177;23;20225;-86
2021/03/16 16:06:09;;;;;;;7.90;1.17;;;;;;;;;;6227428;23;20262;-89
2021/03/16 16:09:33;;;;;;;2.20;0.90;;;;;;;;;;6229879;22;20159;-88
2021/03/16 16:12:56;;;;;;;7.50;1.00;;;;;;;;;;6226903;23;20203;-89
2021/03/16 16:16:20;;;;;;;3.90;1.13;;;;;;;;;;6226411;23;20203;-89
2021/03/16 16:19:45;;;;;;;64.57;4.13;;;;;;;;;;6227973;23;20171;-89
2021/03/16 16:23:09;;;;;;;18.50;1.57;;;;;;;;;;6227644;23;20670;-89
2021/03/16 16:26:34;;;;;;;2.37;1.00;;;;;;;;;;6225288;23;20191;-90
2021/03/16 16:29:57;;;;;;;8.90;1.37;;;;;;;;;;6225160;22;20174;-88
2021/03/16 16:33:21;;;;;;;7.83;3.03;;;;;;;;;;6223037;23;20210;-89
2021/03/16 16:36:47;;;;;;;6.20;1.57;;;;;;;;;;6224767;23;20218;-87
2021/03/16 16:40:11;;;;;;;4.60;1.30;;;;;;;;;;6225657;23;20614;-88
2021/03/16 16:43:37;;;;;;;5.70;1.40;;;;;;;;;;6226419;23;20194;-87
2021/03/16 16:47:00;;;;;;;7.63;1.87;;;;;;;;;;6225807;23;20685;-88
2021/03/16 16:50:24;;;;;;;7.50;1.73;;;;;;;;;;6227239;23;20163;-88
2021/03/16 16:53:50;;;;;;;9.83;1.63;;;;;;;;;;6225476;23;20229;-91
2021/03/16 16:57:13;;;;;;;7.00;1.63;;;;;;;;;;6227090;23;20222;-88
2021/03/16 17:00:37;;;;;;;12.27;2.20;;;;;;;;;;6227313;23;20191;-88
2021/03/16 17:04:00;;;;;;;12.20;2.20;;;;;;;;;;6227425;23;20191;-88
2021/03/16 17:07:24;;;;;;;7.27;2.07;;;;;;;;;;6226502;23;20194;-87
2021/03/16 17:10:48;;;;;;;5.77;1.93;;;;;;;;;;6226735;23;20171;-86
2021/03/16 17:14:11;;;;;;;17.97;2.00;;;;;;;;;;6226428;23;20187;-89
2021/03/16 17:17:35;;;;;;;9.77;2.23;;;;;;;;;;6225888;23;20171;-88
2021/03/16 17:20:59;;;;;;;9.13;1.90;;;;;;;;;;6225883;23;20206;-87
2021/03/16 17:24:22;;;;;;;9.03;1.80;;;;;;;;;;6227256;23;20187;-89
2021/03/16 17:27:46;;;;;;;12.57;1.90;;;;;;;;;;6225652;23;20219;-87
2021/03/16 17:31:10;;;;;;;7.90;2.33;;;;;;;;;;6226524;23;20167;-88
2021/03/16 17:34:34;;;;;;;11.70;3.07;;;;;;;;;;6224717;23;20227;-88
2021/03/16 17:37:57;;;;;;;5.80;1.87;;;;;;;;;;6225976;23;20175;-88
2021/03/16 17:41:21;;;;;;;7.93;1.90;;;;;;;;;;6224429;23;20171;-88
2021/03/16 17:44:45;;;;;;;6.27;2.07;;;;;;;;;;6224198;22;20167;-88
2021/03/16 17:48:10;;;;;;;6.60;2.00;;;;;;;;;;6224876;23;20195;-87
2021/03/16 17:51:33;;;;;;;5.97;1.90;;;;;;;;;;6225111;23;20218;-87
2021/03/16 17:54:57;;;;;;;8.13;2.50;;;;;;;;;;6225732;23;20171;-88
2021/03/16 17:58:20;;;;;;;8.33;1.70;;;;;;;;;;6226350;23;20180;-90
2021/03/16 18:01:44;;;;;;;9.27;1.83;;;;;;;;;;6224644;23;20626;-89
2021/03/16 18:05:08;;;;;;;8.27;2.13;;;;;;;;;;6225608;23;20219;-88
2021/03/16 18:08:32;;;;;;;7.00;1.90;;;;;;;;;;6226893;23;20244;-88
2021/03/16 18:11:55;;;;;;;12.27;2.10;;;;;;;;;;6226032;23;20849;-87
2021/03/16 18:15:18;;;;;;;8.73;2.97;;;;;;;;;;6225550;23;20218;-86
2021/03/16 18:18:44;;;;;;;11.77;2.50;;;;;;;;;;6225894;23;20214;-88
2021/03/16 18:22:09;;;;;;;8.00;2.63;;;;;;;;;;6225420;23;20171;-88
2021/03/16 18:25:38;;;;;;;9.03;3.37;;;;;;;;;;6225730;23;20171;-88
2021/03/16 18:29:02;;;;;;;13.50;3.10;;;;;;;;;;6225668;23;20190;-89
2021/03/16 18:32:25;;;;;;;14.30;3.47;;;;;;;;;;6224196;23;20175;-89
2021/03/16 18:35:50;;;;;;;7.70;2.00;;;;;;;;;;6223731;23;20171;-89
2021/03/16 18:39:14;;;;;;;9.13;3.20;;;;;;;;;;6225536;23;20279;-89
2021/03/16 18:42:38;;;;;;;17.93;6.10;;;;;;;;;;6224232;23;20217;-88
2021/03/16 18:46:01;;;;;;;13.53;3.20;;;;;;;;;;6223925;23;20176;-89
2021/03/16 18:49:24;;;;;;;7.47;2.20;;;;;;;;;;6224236;23;20171;-88
2021/03/16 18:52:49;;;;;;;8.60;2.50;;;;;;;;;;6224028;23;20270;-90
2021/03/16 18:56:12;;;;;;;10.03;2.30;;;;;;;;;;6223390;23;20172;-89
2021/03/16 18:59:36;;;;;;;12.77;2.50;;;;;;;;;;6224076;22;20523;-88
2021/03/16 19:03:32;;;;;;;10.97;2.37;;;;;;;;;;6224033;23;20194;-90
2021/03/16 19:06:55;;;;;;;10.67;2.23;;;;;;;;;;6222259;23;20258;-88
2021/03/16 19:10:20;;;;;;;11.93;2.10;;;;;;;;;;6223470;23;20513;-88
2021/03/16 19:13:44;;;;;;;14.73;2.40;;;;;;;;;;6224344;23;20627;-89
2021/03/16 19:17:07;;;;;;;10.03;2.47;;;;;;;;;;6223984;23;20167;-87
2021/03/16 19:20:31;;;;;;;9.33;2.37;;;;;;;;;;6224557;23;20171;-89
2021/03/16 19:23:54;;;;;;;6.57;2.20;;;;;;;;;;6222776;23;20207;-88
2021/03/16 19:27:18;;;;;;;14.43;2.40;;;;;;;;;;6225466;23;20286;-88
2021/03/16 19:30:42;;;;;;;9.43;2.30;;;;;;;;;;6226093;23;20586;-88
2021/03/16 19:34:06;;;;;;;11.07;2.43;;;;;;;;;;6223837;23;20174;-89
2021/03/16 19:37:30;;;;;;;13.07;2.70;;;;;;;;;;6224407;23;20499;-90
2021/03/16 19:40:53;;;;;;;13.70;2.97;;;;;;;;;;6226371;23;20167;-88
2021/03/16 19:44:18;;;;;;;8.03;2.83;;;;;;;;;;6228466;23;20316;-87
2021/03/16 19:47:43;;;;;;;16.87;3.70;;;;;;;;;;6225866;23;20223;-87
2021/03/16 19:51:07;;;;;;;17.13;3.53;;;;;;;;;;6226831;23;20243;-87
2021/03/16 19:54:30;;;;;;;12.43;3.43;;;;;;;;;;6223819;23;20187;-89
2021/03/16 19:57:53;;;;;;;12.07;3.40;;;;;;;;;;6225768;23;20191;-89
2021/03/16 20:01:18;;;;;;;11.13;3.80;;;;;;;;;;6224950;23;20218;-89